Apellis — 3FJT2 — position and weather

sailwx.info

Track history (hours):
 
Tides and Currents Weather Stations Pressure Air Temp Water Temp Dewpoint Dewpoint Depression Visibility Wind Speed Wind Dir Waves Ship Positions

Apellis

Last reported at 2015-May-28 06:31 UTC. Time now 2015-Jul-03 22:02 UTC.
Position N 31°20' E 032°19'.
Warning: this ship's position is 36 days out of date.

Length 178 m; draft 10 m.

Type: Cargo ship. MMSI: 353847000.

Date/timePositionNaut miles runAvg speedWind from/ knotsBaromVisibWave heightAir tempDewpointWater temp
2015-May-28 06:31N 31°20' E 032°19'0 0.0
2015-May-28 04:21N 31°20' E 032°19'0 0.0
2015-May-28 03:16N 31°20' E 032°19'0 0.0
2015-May-28 02:33N 31°20' E 032°19'0 0.0
2015-May-28 01:33N 31°20' E 032°19'0 0.0
2015-May-28 00:34N 31°20' E 032°19'0 0.3
2015-May-27 23:33N 31°21' E 032°19'9 7.8
2015-May-27 22:26N 31°28' E 032°14'4712.1
2015-May-27 18:33N 32°03' E 031°38'1413.1
2015-May-27 17:30N 32°13' E 031°27'18812.5
2015-May-27 02:26N 34°33' E 028°55'1111.4
2015-May-27 01:27N 34°41' E 028°46'1612.2
2015-May-27 00:06N 34°53' E 028°33'2312.1
2015-May-26 22:12N 35°10' E 028°14'812.6
2015-May-26 21:33N 35°16' E 028°07'1312.6
2015-May-26 20:29N 35°26' E 027°56'1412.6
2015-May-26 19:25N 35°36' E 027°45'1213.0
2015-May-26 18:30N 35°45' E 027°35'1212.4
2015-May-26 17:33N 35°54' E 027°25'3812.6
2015-May-26 14:30N 36°22' E 026°53'1512.7
2015-May-26 13:19N 36°33' E 026°41'2212.5
2015-May-26 11:33N 36°50' E 026°23'1212.3
2015-May-26 10:32N 36°59' E 026°13'2912.4
2015-May-26 08:13N 37°24' E 025°55'811.5
2015-May-26 07:33N 37°31' E 025°51'1111.3
2015-May-26 06:34N 37°42' E 025°46'239 9.5
2015-May-25 05:29N 40°55' E 028°49'10 9.9
2015-May-25 04:27N 41°01' E 028°60'  
Track history (hours):
 
Tides and Currents Weather Stations Pressure Air Temp Water Temp Dewpoint Dewpoint Depression Visibility Wind Speed Wind Dir Waves Ship Positions

Apellis

Last reported at 2015-May-28 06:31 UTC. Time now 2015-Jul-03 22:02 UTC.
Position N 31°20' E 032°19'.
Warning: this ship's position is 36 days out of date.

Length 178 m; draft 10 m.

Type: Cargo ship. MMSI: 353847000.

Date/timePositionNaut miles runAvg speedWind from/ knotsBaromVisibWave heightAir tempDewpointWater temp
2015-May-28 06:31N 31°20' E 032°19'0 0.0
2015-May-28 04:21N 31°20' E 032°19'0 0.0
2015-May-28 03:16N 31°20' E 032°19'0 0.0
2015-May-28 02:33N 31°20' E 032°19'0 0.0
2015-May-28 01:33N 31°20' E 032°19'0 0.0
2015-May-28 00:34N 31°20' E 032°19'0 0.3
2015-May-27 23:33N 31°21' E 032°19'9 7.8
2015-May-27 22:26N 31°28' E 032°14'4712.1
2015-May-27 18:33N 32°03' E 031°38'1413.1
2015-May-27 17:30N 32°13' E 031°27'18812.5
2015-May-27 02:26N 34°33' E 028°55'1111.4
2015-May-27 01:27N 34°41' E 028°46'1612.2
2015-May-27 00:06N 34°53' E 028°33'2312.1
2015-May-26 22:12N 35°10' E 028°14'812.6
2015-May-26 21:33N 35°16' E 028°07'1312.6
2015-May-26 20:29N 35°26' E 027°56'1412.6
2015-May-26 19:25N 35°36' E 027°45'1213.0
2015-May-26 18:30N 35°45' E 027°35'1212.4
2015-May-26 17:33N 35°54' E 027°25'3812.6
2015-May-26 14:30N 36°22' E 026°53'1512.7
2015-May-26 13:19N 36°33' E 026°41'2212.5
2015-May-26 11:33N 36°50' E 026°23'1212.3
2015-May-26 10:32N 36°59' E 026°13'2912.4
2015-May-26 08:13N 37°24' E 025°55'811.5
2015-May-26 07:33N 37°31' E 025°51'1111.3
2015-May-26 06:34N 37°42' E 025°46'239 9.5
2015-May-25 05:29N 40°55' E 028°49'10 9.9
2015-May-25 04:27N 41°01' E 028°60'  

Dump ship's entire track history